sensor_id;sensor_type;location;lat;lon;timestamp;pressure;altitude;pressure_sealevel;temperature;humidity
42297;BME280;28985;47.456;19.016;2022-09-20T00:03:35;100319.25;;;8.73;100.00
42297;BME280;28985;47.456;19.016;2022-09-20T00:06:03;100311.34;;;8.71;100.00
42297;BME280;28985;47.456;19.016;2022-09-20T00:08:30;100324.28;;;8.66;100.00
42297;BME280;28985;47.456;19.016;2022-09-20T00:11:01;100314.66;;;8.64;100.00
42297;BME280;28985;47.456;19.016;2022-09-20T00:13:28;100305.88;;;8.62;100.00
42297;BME280;28985;47.456;19.016;2022-09-20T00:15:55;100314.13;;;8.70;100.00
42297;BME280;28985;47.456;19.016;2022-09-20T00:18:22;100315.47;;;8.76;100.00
42297;BME280;28985;47.456;19.016;2022-09-20T00:20:50;100313.03;;;8.72;100.00
42297;BME280;28985;47.456;19.016;2022-09-20T00:23:17;100321.47;;;8.68;100.00
42297;BME280;28985;47.456;19.016;2022-09-20T00:25:44;100314.75;;;8.62;100.00
42297;BME280;28985;47.456;19.016;2022-09-20T00:28:11;100314.53;;;8.65;100.00
42297;BME280;28985;47.456;19.016;2022-09-20T00:30:38;100317.34;;;8.64;100.00
42297;BME280;28985;47.456;19.016;2022-09-20T00:33:04;100316.72;;;8.60;100.00
42297;BME280;28985;47.456;19.016;2022-09-20T00:35:31;100315.75;;;8.61;100.00
42297;BME280;28985;47.456;19.016;2022-09-20T00:37:58;100310.66;;;8.58;100.00
42297;BME280;28985;47.456;19.016;2022-09-20T00:40:24;100321.22;;;8.59;100.00
42297;BME280;28985;47.456;19.016;2022-09-20T00:42:55;100311.75;;;8.55;100.00
42297;BME280;28985;47.456;19.016;2022-09-20T00:45:27;100323.19;;;8.57;100.00
42297;BME280;28985;47.456;19.016;2022-09-20T00:50:34;100317.13;;;8.55;100.00
42297;BME280;28985;47.456;19.016;2022-09-20T00:53:09;100320.91;;;8.53;100.00
42297;BME280;28985;47.456;19.016;2022-09-20T00:55:43;100320.13;;;8.51;100.00
42297;BME280;28985;47.456;19.016;2022-09-20T00:58:13;100319.22;;;8.52;100.00
42297;BME280;28985;47.456;19.016;2022-09-20T01:00:41;100317.34;;;8.52;100.00
42297;BME280;28985;47.456;19.016;2022-09-20T01:03:09;100317.34;;;8.52;100.00
42297;BME280;28985;47.456;19.016;2022-09-20T01:05:38;100313.69;;;8.53;100.00
42297;BME280;28985;47.456;19.016;2022-09-20T01:08:07;100310.66;;;8.58;100.00
42297;BME280;28985;47.456;19.016;2022-09-20T01:10:34;100312.22;;;8.61;100.00
42297;BME280;28985;47.456;19.016;2022-09-20T01:13:01;100321.13;;;8.61;100.00
42297;BME280;28985;47.456;19.016;2022-09-20T01:15:29;100320.13;;;8.62;100.00
42297;BME280;28985;47.456;19.016;2022-09-20T01:17:58;100321.88;;;8.63;100.00
42297;BME280;28985;47.456;19.016;2022-09-20T01:20:27;100319.91;;;8.65;100.00
42297;BME280;28985;47.456;19.016;2022-09-20T01:23:13;100333.31;;;8.65;100.00
42297;BME280;28985;47.456;19.016;2022-09-20T01:28:39;100340.66;;;8.63;100.00
42297;BME280;28985;47.456;19.016;2022-09-20T01:31:30;100347.72;;;8.64;100.00
42297;BME280;28985;47.456;19.016;2022-09-20T01:34:12;100346.72;;;8.65;100.00
42297;BME280;28985;47.456;19.016;2022-09-20T01:36:53;100350.50;;;8.63;100.00
42297;BME280;28985;47.456;19.016;2022-09-20T01:42:07;100340.28;;;8.56;100.00
42297;BME280;28985;47.456;19.016;2022-09-20T01:50:17;100340.66;;;8.63;100.00
42297;BME280;28985;47.456;19.016;2022-09-20T02:07:36;100349.91;;;8.59;100.00
42297;BME280;28985;47.456;19.016;2022-09-20T02:13:02;100336.63;;;8.57;100.00
42297;BME280;28985;47.456;19.016;2022-09-20T02:15:56;100339.19;;;8.59;100.00
42297;BME280;28985;47.456;19.016;2022-09-20T02:19:06;100343.84;;;8.57;100.00
42297;BME280;28985;47.456;19.016;2022-09-20T02:33:32;100343.44;;;8.50;100.00
42297;BME280;28985;47.456;19.016;2022-09-20T02:36:29;100342.25;;;8.43;100.00
42297;BME280;28985;47.456;19.016;2022-09-20T02:39:16;100348.44;;;8.43;100.00
42297;BME280;28985;47.456;19.016;2022-09-20T02:55:36;100352.72;;;8.35;100.00
42297;BME280;28985;47.456;19.016;2022-09-20T02:58:26;100359.31;;;8.30;100.00
42297;BME280;28985;47.456;19.016;2022-09-20T03:01:16;100352.50;;;8.26;100.00
42297;BME280;28985;47.456;19.016;2022-09-20T03:06:36;100349.31;;;8.21;100.00
42297;BME280;28985;47.456;19.016;2022-09-20T03:09:10;100346.75;;;8.19;100.00
42297;BME280;28985;47.456;19.016;2022-09-20T03:14:37;100347.25;;;8.25;100.00
42297;BME280;28985;47.456;19.016;2022-09-20T03:17:21;100347.13;;;8.26;100.00
42297;BME280;28985;47.456;19.016;2022-09-20T03:20:04;100344.56;;;8.25;100.00
42297;BME280;28985;47.456;19.016;2022-09-20T03:25:45;100352.00;;;8.32;100.00
42297;BME280;28985;47.456;19.016;2022-09-20T03:28:33;100353.59;;;8.35;100.00
42297;BME280;28985;47.456;19.016;2022-09-20T03:34:20;100349.69;;;8.28;100.00
42297;BME280;28985;47.456;19.016;2022-09-20T03:39:53;100353.09;;;8.30;100.00
42297;BME280;28985;47.456;19.016;2022-09-20T03:42:29;100352.59;;;8.25;100.00
42297;BME280;28985;47.456;19.016;2022-09-20T03:52:56;100364.81;;;8.06;100.00
42297;BME280;28985;47.456;19.016;2022-09-20T04:06:39;100353.59;;;7.89;100.00
42297;BME280;28985;47.456;19.016;2022-09-20T04:09:25;100348.34;;;7.88;100.00
42297;BME280;28985;47.456;19.016;2022-09-20T04:12:04;100351.38;;;7.83;100.00
42297;BME280;28985;47.456;19.016;2022-09-20T04:14:48;100344.44;;;7.81;100.00
42297;BME280;28985;47.456;19.016;2022-09-20T04:19:55;100347.50;;;7.76;100.00
42297;BME280;28985;47.456;19.016;2022-09-20T04:22:25;100345.19;;;7.71;100.00
42297;BME280;28985;47.456;19.016;2022-09-20T04:25:20;100358.69;;;7.70;100.00
42297;BME280;28985;47.456;19.016;2022-09-20T04:30:45;100369.28;;;7.60;100.00
42297;BME280;28985;47.456;19.016;2022-09-20T04:33:23;100372.41;;;7.54;100.00
42297;BME280;28985;47.456;19.016;2022-09-20T04:36:02;100380.69;;;7.50;100.00
42297;BME280;28985;47.456;19.016;2022-09-20T04:50:17;100374.19;;;7.42;100.00
42297;BME280;28985;47.456;19.016;2022-09-20T04:55:59;100368.38;;;7.48;100.00
42297;BME280;28985;47.456;19.016;2022-09-20T04:59:08;100380.56;;;7.52;100.00
42297;BME280;28985;47.456;19.016;2022-09-20T05:15:59;100370.94;;;7.49;100.00
42297;BME280;28985;47.456;19.016;2022-09-20T05:21:43;100381.44;;;7.64;100.00
42297;BME280;28985;47.456;19.016;2022-09-20T05:24:38;100371.59;;;7.76;100.00
42297;BME280;28985;47.456;19.016;2022-09-20T05:30:24;100382.34;;;7.99;100.00
42297;BME280;28985;47.456;19.016;2022-09-20T05:33:28;100379.91;;;8.07;100.00
42297;BME280;28985;47.456;19.016;2022-09-20T05:36:16;100379.06;;;8.18;100.00
42297;BME280;28985;47.456;19.016;2022-09-20T05:38:59;100386.00;;;8.32;100.00
42297;BME280;28985;47.456;19.016;2022-09-20T05:41:37;100399.28;;;8.45;100.00
42297;BME280;28985;47.456;19.016;2022-09-20T05:47:16;100406.16;;;8.61;100.00
42297;BME280;28985;47.456;19.016;2022-09-20T06:01:02;100405.75;;;8.77;100.00
42297;BME280;28985;47.456;19.016;2022-09-20T06:03:40;100407.94;;;8.83;100.00
42297;BME280;28985;47.456;19.016;2022-09-20T06:17:23;100412.25;;;9.39;100.00
42297;BME280;28985;47.456;19.016;2022-09-20T06:22:28;100410.91;;;9.66;100.00
42297;BME280;28985;47.456;19.016;2022-09-20T06:27:53;100430.38;;;9.80;99.60
42297;BME280;28985;47.456;19.016;2022-09-20T06:30:24;100438.19;;;9.83;98.18
42297;BME280;28985;47.456;19.016;2022-09-20T06:32:57;100437.53;;;9.91;98.29
42297;BME280;28985;47.456;19.016;2022-09-20T06:35:33;100443.03;;;9.89;96.09
42297;BME280;28985;47.456;19.016;2022-09-20T06:41:43;100446.56;;;10.11;95.41
42297;BME280;28985;47.456;19.016;2022-09-20T06:44:10;100455.25;;;10.25;94.16
42297;BME280;28985;47.456;19.016;2022-09-20T06:46:37;100449.09;;;10.34;94.10
42297;BME280;28985;47.456;19.016;2022-09-20T06:49:04;100448.50;;;10.52;93.97
42297;BME280;28985;47.456;19.016;2022-09-20T06:51:36;100452.09;;;10.62;93.26
42297;BME280;28985;47.456;19.016;2022-09-20T06:54:05;100446.59;;;10.73;90.17
42297;BME280;28985;47.456;19.016;2022-09-20T06:56:36;100448.91;;;10.88;90.59
42297;BME280;28985;47.456;19.016;2022-09-20T06:59:04;100455.59;;;10.94;88.59
42297;BME280;28985;47.456;19.016;2022-09-20T07:01:36;100451.34;;;11.01;87.02
42297;BME280;28985;47.456;19.016;2022-09-20T07:04:03;100448.09;;;11.07;87.59
42297;BME280;28985;47.456;19.016;2022-09-20T07:06:32;100458.19;;;11.15;85.76
42297;BME280;28985;47.456;19.016;2022-09-20T07:08:59;100455.19;;;11.28;84.44
42297;BME280;28985;47.456;19.016;2022-09-20T07:11:25;100458.63;;;11.40;85.51
42297;BME280;28985;47.456;19.016;2022-09-20T07:13:55;100453.53;;;11.57;87.71
42297;BME280;28985;47.456;19.016;2022-09-20T07:16:23;100461.63;;;11.66;84.25
42297;BME280;28985;47.456;19.016;2022-09-20T07:18:52;100462.44;;;11.67;80.73
42297;BME280;28985;47.456;19.016;2022-09-20T07:21:19;100469.84;;;11.65;81.56
42297;BME280;28985;47.456;19.016;2022-09-20T07:23:46;100471.69;;;11.64;82.17
42297;BME280;28985;47.456;19.016;2022-09-20T07:26:24;100472.97;;;11.60;80.88
42297;BME280;28985;47.456;19.016;2022-09-20T07:28:52;100474.94;;;11.48;81.12
42297;BME280;28985;47.456;19.016;2022-09-20T07:31:20;100486.44;;;11.40;81.03
42297;BME280;28985;47.456;19.016;2022-09-20T07:33:48;100483.44;;;11.34;81.45
42297;BME280;28985;47.456;19.016;2022-09-20T07:36:15;100472.81;;;11.42;83.35
42297;BME280;28985;47.456;19.016;2022-09-20T07:38:49;100485.03;;;11.56;83.79
42297;BME280;28985;47.456;19.016;2022-09-20T07:41:18;100473.41;;;11.65;82.15
42297;BME280;28985;47.456;19.016;2022-09-20T07:43:45;100481.19;;;11.78;81.50
42297;BME280;28985;47.456;19.016;2022-09-20T07:46:12;100487.84;;;11.84;79.46
42297;BME280;28985;47.456;19.016;2022-09-20T07:48:41;100484.44;;;11.92;79.62
42297;BME280;28985;47.456;19.016;2022-09-20T07:51:10;100484.44;;;12.02;80.13
42297;BME280;28985;47.456;19.016;2022-09-20T07:53:40;100477.50;;;12.09;78.30
42297;BME280;28985;47.456;19.016;2022-09-20T07:56:12;100474.75;;;12.19;79.09
42297;BME280;28985;47.456;19.016;2022-09-20T07:58:39;100475.69;;;12.38;80.56
42297;BME280;28985;47.456;19.016;2022-09-20T08:01:09;100475.53;;;12.49;76.92
42297;BME280;28985;47.456;19.016;2022-09-20T08:03:36;100468.50;;;12.66;77.95
42297;BME280;28985;47.456;19.016;2022-09-20T08:06:06;100473.00;;;12.75;75.44
42297;BME280;28985;47.456;19.016;2022-09-20T08:08:34;100476.09;;;12.81;75.00
42297;BME280;28985;47.456;19.016;2022-09-20T08:11:09;100470.09;;;12.87;74.42
42297;BME280;28985;47.456;19.016;2022-09-20T08:13:40;100470.56;;;12.82;75.12
42297;BME280;28985;47.456;19.016;2022-09-20T08:16:28;100467.06;;;13.00;76.25
42297;BME280;28985;47.456;19.016;2022-09-20T08:19:00;100473.72;;;13.24;79.03
42297;BME280;28985;47.456;19.016;2022-09-20T08:21:29;100472.50;;;13.36;73.39
42297;BME280;28985;47.456;19.016;2022-09-20T08:23:57;100475.59;;;13.41;69.37
42297;BME280;28985;47.456;19.016;2022-09-20T08:26:27;100471.16;;;13.50;70.66
42297;BME280;28985;47.456;19.016;2022-09-20T08:28:55;100475.03;;;13.66;68.79
42297;BME280;28985;47.456;19.016;2022-09-20T08:31:24;100457.75;;;13.85;70.39
42297;BME280;28985;47.456;19.016;2022-09-20T08:33:52;100466.31;;;13.99;68.81
42297;BME280;28985;47.456;19.016;2022-09-20T08:36:21;100476.06;;;13.91;65.90
42297;BME280;28985;47.456;19.016;2022-09-20T08:38:51;100475.22;;;13.91;66.49
42297;BME280;28985;47.456;19.016;2022-09-20T08:44:34;100473.78;;;13.60;66.86
42297;BME280;28985;47.456;19.016;2022-09-20T08:47:16;100473.38;;;13.55;66.71
42297;BME280;28985;47.456;19.016;2022-09-20T08:49:44;100477.19;;;13.62;67.23
42297;BME280;28985;47.456;19.016;2022-09-20T08:52:18;100481.25;;;13.66;65.80
42297;BME280;28985;47.456;19.016;2022-09-20T08:54:46;100484.13;;;13.65;64.24
42297;BME280;28985;47.456;19.016;2022-09-20T08:57:17;100477.00;;;13.64;65.23
42297;BME280;28985;47.456;19.016;2022-09-20T08:59:45;100474.53;;;13.71;67.01
42297;BME280;28985;47.456;19.016;2022-09-20T09:02:18;100474.47;;;13.80;66.06
42297;BME280;28985;47.456;19.016;2022-09-20T09:04:46;100477.00;;;13.82;63.95
42297;BME280;28985;47.456;19.016;2022-09-20T09:07:16;100473.78;;;13.78;64.09
42297;BME280;28985;47.456;19.016;2022-09-20T09:09:47;100480.78;;;13.89;64.65
42297;BME280;28985;47.456;19.016;2022-09-20T09:12:28;100466.66;;;13.77;61.24
42297;BME280;28985;47.456;19.016;2022-09-20T09:14:59;100476.44;;;13.96;63.83
42297;BME280;28985;47.456;19.016;2022-09-20T09:17:28;100475.22;;;13.91;62.38
42297;BME280;28985;47.456;19.016;2022-09-20T09:22:40;100455.53;;;14.07;62.91
42297;BME280;28985;47.456;19.016;2022-09-20T09:27:53;100478.41;;;13.86;62.28
42297;BME280;28985;47.456;19.016;2022-09-20T09:30:29;100474.94;;;13.76;63.25
42297;BME280;28985;47.456;19.016;2022-09-20T09:33:16;100469.19;;;13.79;63.28
42297;BME280;28985;47.456;19.016;2022-09-20T09:35:45;100463.25;;;13.75;62.73
42297;BME280;28985;47.456;19.016;2022-09-20T09:38:21;100468.66;;;13.75;62.09
42297;BME280;28985;47.456;19.016;2022-09-20T09:41:28;100463.97;;;13.77;62.04
42297;BME280;28985;47.456;19.016;2022-09-20T09:44:03;100468.41;;;13.87;63.51
42297;BME280;28985;47.456;19.016;2022-09-20T09:46:34;100461.16;;;13.87;61.38
42297;BME280;28985;47.456;19.016;2022-09-20T09:49:13;100457.50;;;13.96;62.74
42297;BME280;28985;47.456;19.016;2022-09-20T09:51:59;100454.72;;;14.06;63.04
42297;BME280;28985;47.456;19.016;2022-09-20T09:54:38;100455.63;;;14.15;63.04
42297;BME280;28985;47.456;19.016;2022-09-20T10:00:10;100456.81;;;14.47;64.36
42297;BME280;28985;47.456;19.016;2022-09-20T10:05:31;100458.06;;;14.61;63.19
42297;BME280;28985;47.456;19.016;2022-09-20T10:16:46;100449.09;;;15.12;59.77
42297;BME280;28985;47.456;19.016;2022-09-20T10:19:30;100446.94;;;15.33;58.73
42297;BME280;28985;47.456;19.016;2022-09-20T10:22:08;100440.03;;;15.55;57.96
42297;BME280;28985;47.456;19.016;2022-09-20T10:24:57;100436.47;;;15.88;57.90
42297;BME280;28985;47.456;19.016;2022-09-20T10:27:52;100435.41;;;16.22;60.57
42297;BME280;28985;47.456;19.016;2022-09-20T10:30:27;100440.75;;;16.55;56.92
42297;BME280;28985;47.456;19.016;2022-09-20T10:52:34;100419.69;;;17.91;48.59
42297;BME280;28985;47.456;19.016;2022-09-20T11:09:48;100417.78;;;18.15;49.06
42297;BME280;28985;47.456;19.016;2022-09-20T11:12:23;100427.56;;;17.85;48.94
42297;BME280;28985;47.456;19.016;2022-09-20T11:15:00;100433.44;;;17.74;50.17
42297;BME280;28985;47.456;19.016;2022-09-20T11:17:44;100432.25;;;17.53;50.82
42297;BME280;28985;47.456;19.016;2022-09-20T11:20:22;100437.75;;;16.82;53.53
42297;BME280;28985;47.456;19.016;2022-09-20T11:22:51;100437.06;;;16.40;53.73
42297;BME280;28985;47.456;19.016;2022-09-20T11:25:32;100435.03;;;16.33;54.51
42297;BME280;28985;47.456;19.016;2022-09-20T11:28:09;100431.53;;;16.16;54.96
42297;BME280;28985;47.456;19.016;2022-09-20T11:30:52;100429.00;;;15.98;56.33
42297;BME280;28985;47.456;19.016;2022-09-20T11:33:34;100433.09;;;15.69;58.60
42297;BME280;28985;47.456;19.016;2022-09-20T11:36:13;100428.66;;;15.84;59.99
42297;BME280;28985;47.456;19.016;2022-09-20T11:39:09;100429.69;;;15.83;60.91
42297;BME280;28985;47.456;19.016;2022-09-20T11:41:40;100418.66;;;16.02;62.51
42297;BME280;28985;47.456;19.016;2022-09-20T11:44:11;100413.19;;;16.18;62.70
42297;BME280;28985;47.456;19.016;2022-09-20T11:57:26;100398.84;;;17.98;62.91
42297;BME280;28985;47.456;19.016;2022-09-20T11:59:55;100388.41;;;17.87;59.67
42297;BME280;28985;47.456;19.016;2022-09-20T12:02:32;100401.25;;;17.78;58.24
42297;BME280;28985;47.456;19.016;2022-09-20T12:05:05;100396.25;;;17.43;56.50
42297;BME280;28985;47.456;19.016;2022-09-20T12:10:06;100397.13;;;17.20;54.71
42297;BME280;28985;47.456;19.016;2022-09-20T12:12:47;100388.25;;;17.26;55.45
42297;BME280;28985;47.456;19.016;2022-09-20T12:28:58;100386.47;;;18.92;50.14
42297;BME280;28985;47.456;19.016;2022-09-20T12:36:40;100385.59;;;18.55;51.29
42297;BME280;28985;47.456;19.016;2022-09-20T12:47:27;100377.63;;;17.55;49.69
42297;BME280;28985;47.456;19.016;2022-09-20T12:49:59;100377.81;;;17.53;51.17
42297;BME280;28985;47.456;19.016;2022-09-20T12:58:03;100378.88;;;18.06;49.89
42297;BME280;28985;47.456;19.016;2022-09-20T13:03:21;100377.50;;;18.62;46.74
42297;BME280;28985;47.456;19.016;2022-09-20T13:11:51;100351.81;;;21.81;42.06
42297;BME280;28985;47.456;19.016;2022-09-20T13:14:22;100357.44;;;22.79;38.85
42297;BME280;28985;47.456;19.016;2022-09-20T13:19:42;100370.38;;;21.79;39.01
42297;BME280;28985;47.456;19.016;2022-09-20T13:22:29;100374.25;;;20.88;40.13
42297;BME280;28985;47.456;19.016;2022-09-20T13:25:03;100376.75;;;20.34;42.39
42297;BME280;28985;47.456;19.016;2022-09-20T13:27:48;100379.81;;;20.18;42.48
42297;BME280;28985;47.456;19.016;2022-09-20T13:30:22;100384.06;;;19.41;43.62
42297;BME280;28985;47.456;19.016;2022-09-20T13:32:49;100395.47;;;19.08;44.45
42297;BME280;28985;47.456;19.016;2022-09-20T13:35:22;100389.75;;;18.88;44.39
42297;BME280;28985;47.456;19.016;2022-09-20T13:40:29;100389.03;;;17.74;47.54
42297;BME280;28985;47.456;19.016;2022-09-20T13:42:59;100374.41;;;17.90;48.26
42297;BME280;28985;47.456;19.016;2022-09-20T13:45:51;100379.22;;;18.48;47.61
42297;BME280;28985;47.456;19.016;2022-09-20T13:48:23;100371.56;;;19.54;47.26
42297;BME280;28985;47.456;19.016;2022-09-20T13:50:49;100365.13;;;20.68;45.30
42297;BME280;28985;47.456;19.016;2022-09-20T13:53:21;100371.81;;;21.21;42.22
42297;BME280;28985;47.456;19.016;2022-09-20T13:56:16;100349.47;;;21.98;40.44
42297;BME280;28985;47.456;19.016;2022-09-20T13:58:45;100365.19;;;22.43;38.47
42297;BME280;28985;47.456;19.016;2022-09-20T14:03:51;100368.31;;;22.47;37.82
42297;BME280;28985;47.456;19.016;2022-09-20T14:06:23;100375.53;;;22.34;37.63
42297;BME280;28985;47.456;19.016;2022-09-20T14:08:55;100364.75;;;22.92;36.62
42297;BME280;28985;47.456;19.016;2022-09-20T14:11:25;100377.19;;;22.95;35.03
42297;BME280;28985;47.456;19.016;2022-09-20T14:13:58;100377.38;;;22.61;35.06
42297;BME280;28985;47.456;19.016;2022-09-20T14:16:31;100377.69;;;22.12;35.97
42297;BME280;28985;47.456;19.016;2022-09-20T14:19:01;100380.66;;;22.10;36.04
42297;BME280;28985;47.456;19.016;2022-09-20T14:21:31;100389.56;;;21.72;36.07
42297;BME280;28985;47.456;19.016;2022-09-20T14:24:06;100396.19;;;21.09;37.14
42297;BME280;28985;47.456;19.016;2022-09-20T14:26:41;100392.16;;;20.42;38.94
42297;BME280;28985;47.456;19.016;2022-09-20T14:31:53;100406.13;;;18.88;40.09
42297;BME280;28985;47.456;19.016;2022-09-20T14:34:20;100401.94;;;18.85;41.42
42297;BME280;28985;47.456;19.016;2022-09-20T14:36:48;100400.31;;;18.91;41.11
42297;BME280;28985;47.456;19.016;2022-09-20T14:39:16;100407.47;;;19.29;42.13
42297;BME280;28985;47.456;19.016;2022-09-20T14:41:44;100402.91;;;19.86;42.06
42297;BME280;28985;47.456;19.016;2022-09-20T14:44:31;100395.38;;;20.59;41.18
42297;BME280;28985;47.456;19.016;2022-09-20T14:46:58;100400.47;;;21.31;38.30
42297;BME280;28985;47.456;19.016;2022-09-20T14:51:52;100392.22;;;22.26;34.96
42297;BME280;28985;47.456;19.016;2022-09-20T14:54:27;100392.56;;;22.57;34.50
42297;BME280;28985;47.456;19.016;2022-09-20T14:56:57;100390.94;;;22.88;34.28
42297;BME280;28985;47.456;19.016;2022-09-20T14:59:26;100389.22;;;22.41;33.91
42297;BME280;28985;47.456;19.016;2022-09-20T15:01:59;100391.16;;;22.34;35.65
42297;BME280;28985;47.456;19.016;2022-09-20T15:04:27;100388.47;;;22.79;35.19
42297;BME280;28985;47.456;19.016;2022-09-20T15:06:55;100395.59;;;23.26;35.66
42297;BME280;28985;47.456;19.016;2022-09-20T15:09:22;100393.63;;;22.42;35.81
42297;BME280;28985;47.456;19.016;2022-09-20T15:12:05;100401.31;;;21.59;36.24
42297;BME280;28985;47.456;19.016;2022-09-20T15:14:32;100411.16;;;20.22;37.22
42297;BME280;28985;47.456;19.016;2022-09-20T15:17:03;100419.72;;;19.40;40.02
42297;BME280;28985;47.456;19.016;2022-09-20T15:19:32;100416.47;;;18.92;41.05
42297;BME280;28985;47.456;19.016;2022-09-20T15:21:59;100427.44;;;18.77;42.79
42297;BME280;28985;47.456;19.016;2022-09-20T15:24:26;100421.44;;;18.22;43.90
42297;BME280;28985;47.456;19.016;2022-09-20T15:26:53;100434.13;;;17.91;44.96
42297;BME280;28985;47.456;19.016;2022-09-20T15:29:22;100433.56;;;17.34;46.72
42297;BME280;28985;47.456;19.016;2022-09-20T15:31:48;100451.28;;;17.30;46.35
42297;BME280;28985;47.456;19.016;2022-09-20T15:34:15;100449.72;;;17.04;47.67
42297;BME280;28985;47.456;19.016;2022-09-20T15:36:42;100444.72;;;16.84;47.35
42297;BME280;28985;47.456;19.016;2022-09-20T15:39:08;100453.41;;;16.15;48.98
42297;BME280;28985;47.456;19.016;2022-09-20T15:41:35;100457.84;;;15.82;49.59
42297;BME280;28985;47.456;19.016;2022-09-20T15:44:03;100468.69;;;15.74;50.23
42297;BME280;28985;47.456;19.016;2022-09-20T15:46:31;100469.88;;;15.80;50.24
42297;BME280;28985;47.456;19.016;2022-09-20T15:49:01;100473.59;;;15.70;51.14
42297;BME280;28985;47.456;19.016;2022-09-20T15:51:29;100475.31;;;15.55;52.88
42297;BME280;28985;47.456;19.016;2022-09-20T15:54:02;100482.34;;;15.23;53.66
42297;BME280;28985;47.456;19.016;2022-09-20T15:56:33;100485.06;;;15.14;54.07
42297;BME280;28985;47.456;19.016;2022-09-20T15:59:05;100480.22;;;14.83;55.69
42297;BME280;28985;47.456;19.016;2022-09-20T16:01:34;100476.53;;;14.66;59.52
42297;BME280;28985;47.456;19.016;2022-09-20T16:04:08;100470.72;;;14.87;57.02
42297;BME280;28985;47.456;19.016;2022-09-20T16:06:36;100468.34;;;14.84;57.75
42297;BME280;28985;47.456;19.016;2022-09-20T16:09:04;100469.22;;;14.58;60.13
42297;BME280;28985;47.456;19.016;2022-09-20T16:11:31;100473.03;;;14.39;62.22
42297;BME280;28985;47.456;19.016;2022-09-20T16:13:59;100468.72;;;14.28;63.67
42297;BME280;28985;47.456;19.016;2022-09-20T16:16:27;100461.44;;;14.02;65.32
42297;BME280;28985;47.456;19.016;2022-09-20T16:18:55;100455.94;;;13.94;66.87
42297;BME280;28985;47.456;19.016;2022-09-20T16:21:44;100469.38;;;13.77;67.98
42297;BME280;28985;47.456;19.016;2022-09-20T16:24:12;100467.59;;;13.68;69.75
42297;BME280;28985;47.456;19.016;2022-09-20T16:26:39;100467.44;;;13.51;69.65
42297;BME280;28985;47.456;19.016;2022-09-20T16:29:06;100476.13;;;13.45;70.60
42297;BME280;28985;47.456;19.016;2022-09-20T16:36:49;100477.88;;;13.46;71.18
42297;BME280;28985;47.456;19.016;2022-09-20T16:39:17;100470.16;;;13.23;72.71
42297;BME280;28985;47.456;19.016;2022-09-20T16:41:44;100472.19;;;13.21;72.63
42297;BME280;28985;47.456;19.016;2022-09-20T16:44:12;100476.75;;;13.21;73.55
42297;BME280;28985;47.456;19.016;2022-09-20T16:46:39;100468.03;;;13.27;74.66
42297;BME280;28985;47.456;19.016;2022-09-20T16:49:07;100473.34;;;13.19;72.64
42297;BME280;28985;47.456;19.016;2022-09-20T16:51:36;100469.94;;;13.16;72.67
42297;BME280;28985;47.456;19.016;2022-09-20T16:54:05;100472.94;;;13.13;72.18
42297;BME280;28985;47.456;19.016;2022-09-20T16:56:34;100467.72;;;13.12;72.56
42297;BME280;28985;47.456;19.016;2022-09-20T16:59:01;100467.53;;;13.13;72.21
42297;BME280;28985;47.456;19.016;2022-09-20T17:01:29;100478.25;;;13.05;73.51
42297;BME280;28985;47.456;19.016;2022-09-20T17:03:57;100470.22;;;12.95;72.87
42297;BME280;28985;47.456;19.016;2022-09-20T17:06:24;100475.81;;;12.84;73.33
42297;BME280;28985;47.456;19.016;2022-09-20T17:08:52;100481.44;;;12.91;72.14
42297;BME280;28985;47.456;19.016;2022-09-20T17:11:26;100480.84;;;12.97;70.88
42297;BME280;28985;47.456;19.016;2022-09-20T17:13:54;100479.66;;;12.81;74.99
42297;BME280;28985;47.456;19.016;2022-09-20T17:16:26;100485.81;;;12.73;76.82
42297;BME280;28985;47.456;19.016;2022-09-20T17:18:58;100486.41;;;12.67;77.41
42297;BME280;28985;47.456;19.016;2022-09-20T17:21:26;100489.22;;;12.75;75.42
42297;BME280;28985;47.456;19.016;2022-09-20T17:23:55;100489.81;;;12.69;74.40
42297;BME280;28985;47.456;19.016;2022-09-20T17:26:30;100490.00;;;12.58;78.98
42297;BME280;28985;47.456;19.016;2022-09-20T17:29:00;100492.91;;;12.37;79.32
42297;BME280;28985;47.456;19.016;2022-09-20T17:31:29;100498.19;;;12.28;77.85
42297;BME280;28985;47.456;19.016;2022-09-20T17:33:57;100499.88;;;12.29;76.53
42297;BME280;28985;47.456;19.016;2022-09-20T17:36:29;100497.59;;;12.34;73.90
42297;BME280;28985;47.456;19.016;2022-09-20T17:38:58;100503.88;;;12.25;78.77
42297;BME280;28985;47.456;19.016;2022-09-20T17:41:30;100515.56;;;12.16;80.43
42297;BME280;28985;47.456;19.016;2022-09-20T17:43:58;100515.69;;;12.14;79.48
42297;BME280;28985;47.456;19.016;2022-09-20T17:46:29;100519.22;;;12.25;77.54
42297;BME280;28985;47.456;19.016;2022-09-20T17:49:01;100517.81;;;12.20;79.53
42297;BME280;28985;47.456;19.016;2022-09-20T17:51:33;100525.91;;;12.20;78.88
42297;BME280;28985;47.456;19.016;2022-09-20T17:54:00;100519.09;;;12.16;79.96
42297;BME280;28985;47.456;19.016;2022-09-20T17:56:28;100518.84;;;12.10;80.35
42297;BME280;28985;47.456;19.016;2022-09-20T17:59:00;100529.59;;;12.00;76.92
42297;BME280;28985;47.456;19.016;2022-09-20T18:01:29;100524.34;;;11.98;75.46
42297;BME280;28985;47.456;19.016;2022-09-20T18:03:58;100533.72;;;12.04;76.26
42297;BME280;28985;47.456;19.016;2022-09-20T18:06:36;100536.28;;;11.95;76.89
42297;BME280;28985;47.456;19.016;2022-09-20T18:09:05;100542.81;;;11.83;76.21